createdAt,value
2019-04-09T00:00:31.115Z,15.67
2019-04-09T00:01:31.109Z,15.70
2019-04-09T00:02:31.761Z,15.70
2019-04-09T00:03:31.783Z,15.70
2019-04-09T00:04:31.097Z,15.66
2019-04-09T00:05:31.683Z,15.68
2019-04-09T00:06:31.659Z,15.66
2019-04-09T00:07:31.080Z,15.71
2019-04-09T00:08:31.672Z,15.73
2019-04-09T00:09:31.076Z,15.77
2019-04-09T00:10:31.069Z,15.71
2019-04-09T00:11:31.066Z,15.73
2019-04-09T00:12:31.558Z,15.67
2019-04-09T00:13:31.899Z,15.67
2019-04-09T00:14:31.852Z,15.59
2019-04-09T00:15:31.799Z,15.62
2019-04-09T00:16:31.526Z,15.58
2019-04-09T00:17:31.036Z,15.64
2019-04-09T00:18:31.575Z,15.60
2019-04-09T00:19:31.025Z,15.70
2019-04-09T00:20:31.013Z,15.64
2019-04-09T00:21:31.652Z,15.64
2019-04-09T00:22:31.008Z,15.52
2019-04-09T00:23:31.002Z,15.49
2019-04-09T00:24:30.993Z,15.46
2019-04-09T00:25:30.987Z,15.51
2019-04-09T00:26:42.462Z,15.43
2019-04-09T00:27:30.982Z,15.49
2019-04-09T00:28:31.267Z,15.31
2019-04-09T00:29:30.978Z,15.33
2019-04-09T00:30:31.268Z,15.33
2019-04-09T00:31:31.213Z,15.41
2019-04-09T00:32:30.957Z,15.35
2019-04-09T00:33:31.103Z,15.37
2019-04-09T00:34:31.531Z,15.41
2019-04-09T00:35:30.937Z,15.38
2019-04-09T00:36:31.568Z,15.33
2019-04-09T00:37:31.463Z,15.41
2019-04-09T00:38:31.388Z,15.30
2019-04-09T00:39:30.916Z,15.31
2019-04-09T00:40:30.916Z,15.18
2019-04-09T00:41:31.497Z,15.13
2019-04-09T00:42:31.483Z,15.15
2019-04-09T00:43:30.949Z,15.27
2019-04-09T00:44:30.895Z,15.22
2019-04-09T00:45:30.887Z,15.12
2019-04-09T00:46:31.689Z,15.18
2019-04-09T00:47:30.881Z,15.11
2019-04-09T00:48:31.756Z,15.15
2019-04-09T00:49:31.804Z,15.05
2019-04-09T00:50:30.963Z,15.01
2019-04-09T00:51:31.046Z,15.00
2019-04-09T00:52:30.854Z,15.04
2019-04-09T00:53:30.850Z,15.04
2019-04-09T00:54:31.588Z,14.97
2019-04-09T00:55:30.943Z,14.83
2019-04-09T00:56:31.707Z,14.86
2019-04-09T00:57:31.184Z,14.82
2019-04-09T00:58:30.823Z,14.78
2019-04-09T00:59:30.820Z,14.69
2019-04-09T01:00:30.809Z,14.67
2019-04-09T01:01:30.802Z,14.64
2019-04-09T01:02:30.803Z,14.71
2019-04-09T01:03:30.791Z,14.67
2019-04-09T01:04:30.792Z,14.63
2019-04-09T01:05:30.784Z,14.61
2019-04-09T01:06:31.420Z,14.66
2019-04-09T01:07:30.772Z,14.64
2019-04-09T01:08:31.606Z,14.67
2019-04-09T01:09:30.757Z,14.71
2019-04-09T01:10:30.756Z,14.60
2019-04-09T01:11:31.571Z,14.63
2019-04-09T01:12:30.741Z,14.61
2019-04-09T01:13:30.824Z,14.66
2019-04-09T01:14:31.559Z,14.71
2019-04-09T01:15:30.965Z,14.61
2019-04-09T01:16:31.788Z,14.60
2019-04-09T01:17:31.698Z,14.59
2019-04-09T01:18:30.713Z,14.60
2019-04-09T01:19:31.666Z,14.52
2019-04-09T01:20:31.734Z,14.57
2019-04-09T01:21:31.522Z,14.56
2019-04-09T01:22:30.865Z,14.49
2019-04-09T01:23:30.738Z,14.53
2019-04-09T01:24:35.370Z,14.56
2019-04-09T01:25:30.885Z,14.59
2019-04-09T01:26:30.818Z,14.48
2019-04-09T01:27:30.896Z,14.56
2019-04-09T01:28:30.875Z,14.57
2019-04-09T01:29:30.648Z,14.57
2019-04-09T01:30:30.644Z,14.42
2019-04-09T01:31:30.639Z,14.44
2019-04-09T01:32:31.273Z,14.38
2019-04-09T01:33:31.023Z,14.39
2019-04-09T01:34:30.617Z,14.45
2019-04-09T01:35:31.156Z,14.42
2019-04-09T01:36:31.079Z,14.36
2019-04-09T01:37:30.972Z,14.46
2019-04-09T01:38:30.755Z,14.39
2019-04-09T01:39:30.591Z,14.31
2019-04-09T01:40:30.582Z,14.26
2019-04-09T01:41:31.146Z,14.36
2019-04-09T01:42:31.184Z,14.30
2019-04-09T01:43:30.567Z,14.24
2019-04-09T01:44:30.558Z,14.12
2019-04-09T01:45:30.551Z,14.17
2019-04-09T01:46:30.932Z,14.13
2019-04-09T01:47:30.826Z,14.16
2019-04-09T01:48:30.542Z,14.02
2019-04-09T01:49:30.534Z,14.06
2019-04-09T01:50:31.051Z,14.04
2019-04-09T01:51:31.091Z,14.04
2019-04-09T01:52:30.512Z,13.93
2019-04-09T01:53:30.505Z,14.02
2019-04-09T01:54:30.502Z,13.96
2019-04-09T01:55:30.495Z,13.98
2019-04-09T01:56:31.120Z,13.98
2019-04-09T01:57:33.278Z,13.98
2019-04-09T01:58:31.032Z,13.87
2019-04-09T01:59:30.895Z,13.76
2019-04-09T02:00:30.470Z,13.84
2019-04-09T02:01:30.463Z,13.86
2019-04-09T02:02:31.237Z,13.79
2019-04-09T02:03:31.351Z,13.79
2019-04-09T02:04:30.550Z,13.75
2019-04-09T02:05:30.433Z,13.72
2019-04-09T02:06:30.426Z,13.65
2019-04-09T02:07:30.608Z,13.63
2019-04-09T02:08:30.433Z,13.61
2019-04-09T02:09:30.410Z,13.62
2019-04-09T02:10:31.315Z,13.62
2019-04-09T02:11:30.401Z,13.59
2019-04-09T02:12:30.840Z,13.57
2019-04-09T02:13:30.384Z,13.59
2019-04-09T02:14:30.383Z,13.51
2019-04-09T02:15:30.377Z,13.50
2019-04-09T02:16:30.367Z,13.50
2019-04-09T02:17:30.580Z,13.51
2019-04-09T02:18:30.352Z,13.50
2019-04-09T02:19:30.345Z,13.46
2019-04-09T02:20:30.885Z,13.43
2019-04-09T02:21:30.804Z,13.43
2019-04-09T02:22:30.768Z,13.43
2019-04-09T02:23:30.326Z,13.38
2019-04-09T02:24:30.730Z,13.38
2019-04-09T02:25:30.780Z,13.21
2019-04-09T02:26:30.746Z,13.24
2019-04-09T02:27:40.071Z,13.27
2019-04-09T02:28:30.453Z,13.19
2019-04-09T02:29:31.152Z,13.24
2019-04-09T02:30:31.001Z,13.19
2019-04-09T02:31:30.798Z,13.17
2019-04-09T02:32:32.127Z,13.19
2019-04-09T02:33:31.635Z,13.06
2019-04-09T02:34:31.735Z,13.14
2019-04-09T02:35:30.328Z,13.09
2019-04-09T02:36:31.574Z,13.09
2019-04-09T02:37:30.470Z,13.03
2019-04-09T02:38:30.223Z,12.99
2019-04-09T02:39:30.676Z,12.94
2019-04-09T02:40:30.225Z,12.91
2019-04-09T02:41:30.206Z,12.87
2019-04-09T02:42:30.837Z,12.95
2019-04-09T02:43:30.796Z,12.92
2019-04-09T02:44:30.950Z,12.88
2019-04-09T02:45:30.974Z,12.87
2019-04-09T02:46:30.793Z,12.81
2019-04-09T02:47:30.168Z,12.76
2019-04-09T02:48:30.159Z,12.79
2019-04-09T02:49:30.750Z,12.79
2019-04-09T02:50:30.677Z,12.77
2019-04-09T02:51:30.137Z,12.69
2019-04-09T02:52:30.135Z,12.70
2019-04-09T02:53:30.128Z,12.70
2019-04-09T02:54:30.123Z,12.66
2019-04-09T02:55:31.125Z,12.67
2019-04-09T02:56:30.382Z,12.62
2019-04-09T02:57:30.399Z,12.73
2019-04-09T02:58:31.055Z,12.63
2019-04-09T02:59:30.281Z,12.61
2019-04-09T03:00:30.168Z,12.59
2019-04-09T03:01:30.073Z,12.70
2019-04-09T03:02:30.169Z,12.56
2019-04-09T03:03:31.113Z,12.59
2019-04-09T03:04:31.179Z,12.63
2019-04-09T03:05:30.859Z,12.61
2019-04-09T03:06:30.180Z,12.55
2019-04-09T03:07:30.034Z,12.59
2019-04-09T03:08:30.864Z,12.56
2019-04-09T03:09:30.900Z,12.51
2019-04-09T03:10:30.012Z,12.55
2019-04-09T03:11:30.003Z,12.62
2019-04-09T03:12:29.999Z,12.55
2019-04-09T03:13:29.993Z,12.55
2019-04-09T03:14:30.562Z,12.59
2019-04-09T03:15:29.977Z,12.54
2019-04-09T03:16:29.966Z,12.52
2019-04-09T03:17:29.957Z,12.49
2019-04-09T03:18:29.956Z,12.48
2019-04-09T03:19:29.949Z,12.43
2019-04-09T03:20:29.938Z,12.51
2019-04-09T03:21:30.161Z,12.51
2019-04-09T03:22:29.925Z,12.51
2019-04-09T03:23:29.919Z,12.37
2019-04-09T03:24:30.489Z,12.40
2019-04-09T03:25:30.416Z,12.48
2019-04-09T03:26:30.866Z,12.48
2019-04-09T03:27:29.898Z,12.51
2019-04-09T03:28:30.693Z,12.36
2019-04-09T03:29:30.188Z,12.38
2019-04-09T03:30:30.693Z,12.41
2019-04-09T03:31:31.916Z,12.44
2019-04-09T03:32:31.299Z,12.36
2019-04-09T03:33:31.713Z,12.43
2019-04-09T03:34:30.377Z,12.44
2019-04-09T03:35:29.837Z,12.31
2019-04-09T03:36:29.831Z,12.36
2019-04-09T03:37:29.825Z,12.25
2019-04-09T03:38:30.584Z,12.22
2019-04-09T03:39:29.812Z,12.19
2019-04-09T03:40:29.803Z,12.19
2019-04-09T03:41:30.577Z,12.25
2019-04-09T03:42:30.572Z,12.15
2019-04-09T03:43:29.781Z,12.12
2019-04-09T03:44:29.782Z,12.08
2019-04-09T03:45:29.770Z,12.12
2019-04-09T03:46:29.970Z,11.98
2019-04-09T03:47:30.042Z,11.94
2019-04-09T03:48:29.743Z,11.96
2019-04-09T03:49:30.023Z,11.98
2019-04-09T03:50:29.863Z,11.87
2019-04-09T03:51:29.728Z,11.85
2019-04-09T03:52:29.718Z,11.85
2019-04-09T03:53:30.635Z,11.87
2019-04-09T03:54:30.760Z,11.85
2019-04-09T03:55:29.705Z,11.79
2019-04-09T03:56:30.185Z,11.82
2019-04-09T03:57:30.256Z,11.84
2019-04-09T03:58:29.685Z,11.75
2019-04-09T03:59:29.669Z,11.75
2019-04-09T04:00:30.502Z,11.74
2019-04-09T04:01:30.624Z,11.67
2019-04-09T04:02:30.486Z,11.64
2019-04-09T04:03:29.642Z,11.62
2019-04-09T04:04:29.887Z,11.45
2019-04-09T04:05:29.974Z,11.44
2019-04-09T04:06:30.083Z,11.46
2019-04-09T04:07:29.614Z,11.48
2019-04-09T04:08:29.606Z,11.51
2019-04-09T04:09:29.597Z,11.46
2019-04-09T04:10:29.589Z,11.46
2019-04-09T04:11:29.739Z,11.44
2019-04-09T04:12:29.570Z,11.41
2019-04-09T04:13:29.564Z,11.49
2019-04-09T04:14:29.554Z,11.45
2019-04-09T04:15:30.366Z,11.33
2019-04-09T04:16:30.425Z,11.31
2019-04-09T04:17:29.849Z,11.36
2019-04-09T04:18:29.845Z,11.27
2019-04-09T04:19:29.524Z,11.27
2019-04-09T04:20:29.513Z,11.31
2019-04-09T04:21:29.873Z,11.28
2019-04-09T04:22:29.499Z,11.23
2019-04-09T04:23:29.493Z,11.26
2019-04-09T04:24:30.359Z,11.24
2019-04-09T04:25:29.474Z,11.17
2019-04-09T04:26:29.463Z,11.20
2019-04-09T04:27:29.761Z,11.19
2019-04-09T04:28:35.050Z,11.20
2019-04-09T04:29:29.445Z,11.23
2019-04-09T04:30:30.106Z,11.13
2019-04-09T04:31:30.143Z,11.17
2019-04-09T04:32:29.441Z,11.17
2019-04-09T04:33:29.413Z,11.11
2019-04-09T04:34:29.406Z,11.17
2019-04-09T04:35:29.408Z,11.17
2019-04-09T04:36:29.395Z,11.11
2019-04-09T04:37:29.391Z,11.20
2019-04-09T04:38:29.373Z,11.12
2019-04-09T04:39:29.366Z,11.16
2019-04-09T04:40:29.366Z,11.11
2019-04-09T04:41:30.178Z,11.16
2019-04-09T04:42:29.709Z,11.21
2019-04-09T04:43:29.338Z,11.13
2019-04-09T04:44:29.328Z,11.09
2019-04-09T04:45:29.317Z,11.11
2019-04-09T04:46:29.327Z,11.05
2019-04-09T04:47:30.131Z,11.09
2019-04-09T04:48:29.322Z,11.08
2019-04-09T04:49:29.310Z,11.11
2019-04-09T04:50:29.287Z,11.12
2019-04-09T04:51:29.280Z,11.11
2019-04-09T04:52:30.004Z,11.11
2019-04-09T04:53:29.259Z,11.13
2019-04-09T04:54:30.045Z,10.99
2019-04-09T04:55:29.247Z,11.06
2019-04-09T04:56:29.947Z,11.08
2019-04-09T04:57:29.440Z,11.06
2019-04-09T04:58:38.318Z,11.09
2019-04-09T04:59:29.212Z,11.12
2019-04-09T05:00:29.208Z,11.11
2019-04-09T05:01:29.202Z,11.06
2019-04-09T05:02:29.231Z,11.08
2019-04-09T05:03:29.184Z,11.11
2019-04-09T05:04:29.546Z,11.11
2019-04-09T05:05:29.170Z,10.99
2019-04-09T05:06:29.686Z,11.05
2019-04-09T05:07:36.409Z,11.13
2019-04-09T05:08:29.855Z,11.06
2019-04-09T05:09:29.140Z,11.01
2019-04-09T05:10:29.951Z,11.11
2019-04-09T05:11:29.123Z,11.11
2019-04-09T05:12:29.922Z,10.98
2019-04-09T05:13:29.109Z,11.13
2019-04-09T05:14:29.728Z,11.08
2019-04-09T05:15:29.093Z,11.09
2019-04-09T05:16:29.079Z,11.05
2019-04-09T05:17:29.076Z,11.09
2019-04-09T05:18:29.063Z,11.12
2019-04-09T05:19:29.056Z,11.13
2019-04-09T05:20:29.179Z,11.12
2019-04-09T05:21:29.047Z,11.13
2019-04-09T05:22:30.847Z,11.13
2019-04-09T05:23:29.715Z,11.11
2019-04-09T05:24:29.022Z,11.11
2019-04-09T05:25:29.420Z,11.12
2019-04-09T05:26:29.010Z,11.21
2019-04-09T05:27:29.005Z,11.24
2019-04-09T05:28:29.012Z,11.28
2019-04-09T05:29:29.654Z,11.46
2019-04-09T05:30:29.065Z,11.42
2019-04-09T05:31:28.967Z,11.62
2019-04-09T05:32:29.799Z,11.63
2019-04-09T05:33:28.955Z,11.63
2019-04-09T05:34:29.723Z,11.70
2019-04-09T05:35:29.346Z,11.72
2019-04-09T05:36:28.936Z,11.69
2019-04-09T05:37:28.988Z,11.82
2019-04-09T05:38:29.264Z,11.81
2019-04-09T05:39:28.912Z,11.85
2019-04-09T05:40:28.909Z,11.81
2019-04-09T05:41:29.837Z,11.79
2019-04-09T05:42:28.890Z,11.93
2019-04-09T05:43:28.880Z,11.98
2019-04-09T05:44:29.431Z,11.94
2019-04-09T05:45:29.818Z,11.93
2019-04-09T05:46:29.851Z,11.82
2019-04-09T05:47:28.857Z,11.82
2019-04-09T05:48:29.655Z,11.87
2019-04-09T05:49:29.745Z,11.79
2019-04-09T05:50:29.854Z,11.85
2019-04-09T05:51:28.823Z,11.93
2019-04-09T05:52:29.110Z,11.94
2019-04-09T05:53:28.809Z,11.93
2019-04-09T05:54:28.806Z,11.94
2019-04-09T05:55:28.912Z,11.90
2019-04-09T05:56:29.784Z,11.79
2019-04-09T05:57:28.782Z,11.75
2019-04-09T05:58:29.678Z,11.67
2019-04-09T05:59:29.028Z,11.69
2019-04-09T06:00:28.770Z,11.77
2019-04-09T06:01:29.619Z,11.77
2019-04-09T06:02:29.660Z,11.70
2019-04-09T06:03:28.851Z,11.62
2019-04-09T06:04:28.755Z,11.57
2019-04-09T06:05:28.956Z,11.70
2019-04-09T06:06:29.498Z,11.72
2019-04-09T06:07:29.150Z,11.70
2019-04-09T06:08:29.631Z,11.62
2019-04-09T06:09:29.078Z,11.74
2019-04-09T06:10:28.687Z,11.69
2019-04-09T06:11:28.697Z,11.59
2019-04-09T06:12:28.958Z,11.66
2019-04-09T06:13:29.310Z,11.72
2019-04-09T06:14:28.662Z,11.74
2019-04-09T06:15:28.858Z,11.82
2019-04-09T06:16:29.440Z,11.78
2019-04-09T06:17:29.536Z,11.75
2019-04-09T06:18:28.642Z,11.70
2019-04-09T06:19:28.633Z,11.67
2019-04-09T06:20:28.622Z,11.59
2019-04-09T06:21:32.059Z,11.66
2019-04-09T06:22:29.543Z,11.72
2019-04-09T06:23:28.604Z,11.66
2019-04-09T06:24:29.284Z,11.64
2019-04-09T06:25:29.838Z,11.62
2019-04-09T06:26:28.611Z,11.59
2019-04-09T06:27:28.574Z,11.57
2019-04-09T06:28:28.565Z,11.57
2019-04-09T06:29:28.572Z,11.53
2019-04-09T06:30:29.386Z,11.57
2019-04-09T06:31:28.645Z,11.57
2019-04-09T06:32:28.892Z,11.53
2019-04-09T06:33:28.530Z,11.56
2019-04-09T06:34:28.529Z,11.45
2019-04-09T06:35:28.517Z,11.51
2019-04-09T06:36:28.516Z,11.56
2019-04-09T06:37:28.507Z,11.45
2019-04-09T06:38:29.392Z,11.45
2019-04-09T06:39:28.494Z,11.56
2019-04-09T06:40:28.571Z,11.59
2019-04-09T06:41:28.480Z,11.57
2019-04-09T06:42:28.466Z,11.64
2019-04-09T06:43:28.461Z,11.64
2019-04-09T06:44:28.659Z,11.62
2019-04-09T06:45:28.451Z,11.74
2019-04-09T06:46:28.436Z,11.81
2019-04-09T06:47:28.668Z,11.74
2019-04-09T06:48:29.222Z,11.70
2019-04-09T06:49:28.419Z,11.72
2019-04-09T06:50:29.286Z,11.77
2019-04-09T06:51:34.389Z,11.74
2019-04-09T06:52:28.516Z,11.67
2019-04-09T06:53:28.959Z,11.74
2019-04-09T06:54:28.449Z,11.78
2019-04-09T06:55:29.094Z,11.74
2019-04-09T06:56:28.490Z,11.75
2019-04-09T06:57:28.366Z,11.72
2019-04-09T06:58:28.361Z,11.72
2019-04-09T06:59:31.790Z,11.77
2019-04-09T07:00:28.537Z,11.70
2019-04-09T07:01:28.821Z,11.69
2019-04-09T07:02:28.329Z,11.63
2019-04-09T07:03:28.322Z,11.62
2019-04-09T07:04:28.315Z,11.60
2019-04-09T07:05:28.305Z,11.56
2019-04-09T07:06:28.480Z,11.51
2019-04-09T07:07:28.302Z,11.49
2019-04-09T07:08:29.011Z,11.45
2019-04-09T07:09:29.286Z,11.38
2019-04-09T07:10:28.274Z,11.48
2019-04-09T07:11:28.691Z,11.42
2019-04-09T07:12:29.174Z,11.36
2019-04-09T07:13:28.248Z,11.41
2019-04-09T07:14:28.642Z,11.44
2019-04-09T07:15:29.075Z,11.49
2019-04-09T07:16:28.234Z,11.42
2019-04-09T07:17:31.056Z,11.48
2019-04-09T07:18:29.255Z,11.42
2019-04-09T07:19:29.225Z,11.44
2019-04-09T07:20:28.205Z,11.46
2019-04-09T07:21:28.617Z,11.42
2019-04-09T07:22:28.900Z,11.44
2019-04-09T07:23:28.181Z,11.44
2019-04-09T07:24:28.169Z,11.56
2019-04-09T07:25:28.168Z,11.57
2019-04-09T07:26:28.154Z,11.56
2019-04-09T07:27:28.630Z,11.56
2019-04-09T07:28:28.148Z,11.51
2019-04-09T07:29:43.720Z,11.54
2019-04-09T07:30:28.284Z,11.56
2019-04-09T07:31:29.618Z,11.64
2019-04-09T07:32:30.382Z,11.63
2019-04-09T07:33:28.711Z,11.66
2019-04-09T07:34:28.866Z,11.62
2019-04-09T07:35:31.817Z,11.63
2019-04-09T07:36:28.804Z,11.72
2019-04-09T07:37:28.123Z,11.74
2019-04-09T07:38:29.136Z,11.77
2019-04-09T07:39:28.673Z,11.72
2019-04-09T07:40:31.617Z,11.75
2019-04-09T07:41:28.049Z,11.74
2019-04-09T07:42:28.042Z,11.72
2019-04-09T07:43:28.035Z,11.75
2019-04-09T07:44:30.305Z,11.75
2019-04-09T07:45:28.017Z,11.79
2019-04-09T07:46:28.136Z,11.66
2019-04-09T07:47:31.415Z,11.74
2019-04-09T07:48:29.995Z,11.77
2019-04-09T07:49:31.226Z,11.88
2019-04-09T07:50:28.217Z,11.82
2019-04-09T07:51:27.984Z,11.87
2019-04-09T07:52:28.306Z,11.90
2019-04-09T07:53:30.176Z,11.87
2019-04-09T07:54:27.956Z,11.88
2019-04-09T07:55:28.741Z,11.87
2019-04-09T07:56:29.763Z,11.82
2019-04-09T07:57:28.247Z,11.87
2019-04-09T07:58:28.645Z,11.94
2019-04-09T07:59:28.730Z,11.97
2019-04-09T08:00:28.885Z,11.97
2019-04-09T08:01:27.905Z,12.00
2019-04-09T08:02:28.488Z,12.07
2019-04-09T08:03:30.660Z,12.01
2019-04-09T08:04:28.169Z,12.08
2019-04-09T08:05:27.928Z,12.11
2019-04-09T08:06:28.965Z,12.11
2019-04-09T08:07:28.537Z,12.12
2019-04-09T08:08:32.149Z,11.98
2019-04-09T08:09:27.971Z,12.01
2019-04-09T08:10:28.349Z,12.08
2019-04-09T08:11:27.879Z,12.11
2019-04-09T08:12:27.831Z,12.05
2019-04-09T08:13:30.605Z,12.13
2019-04-09T08:14:28.010Z,12.15
2019-04-09T08:15:28.999Z,12.23
2019-04-09T08:16:28.725Z,12.13
2019-04-09T08:17:27.794Z,12.19
2019-04-09T08:18:27.784Z,12.00
2019-04-09T08:19:28.147Z,12.08
2019-04-09T08:20:31.848Z,12.12
2019-04-09T08:21:29.173Z,12.07
2019-04-09T08:22:28.705Z,12.11
2019-04-09T08:23:27.749Z,12.12
2019-04-09T08:24:28.232Z,12.25
2019-04-09T08:25:29.496Z,12.30
2019-04-09T08:26:27.739Z,12.25
2019-04-09T08:27:27.823Z,12.34
2019-04-09T08:28:27.719Z,12.49
2019-04-09T08:29:27.710Z,12.49
2019-04-09T08:30:33.943Z,12.44
2019-04-09T08:31:28.685Z,12.48
2019-04-09T08:32:27.698Z,12.51
2019-04-09T08:33:28.501Z,12.54
2019-04-09T08:34:31.263Z,12.46
2019-04-09T08:35:28.361Z,12.51
2019-04-09T08:36:28.352Z,12.54
2019-04-09T08:37:28.310Z,12.62
2019-04-09T08:38:29.829Z,12.59
2019-04-09T08:39:27.648Z,12.58
2019-04-09T08:40:27.636Z,12.61
2019-04-09T08:41:28.660Z,12.52
2019-04-09T08:42:29.503Z,12.52
2019-04-09T08:43:28.720Z,12.54
2019-04-09T08:44:27.617Z,12.54
2019-04-09T08:45:28.397Z,12.48
2019-04-09T08:46:28.651Z,12.54
2019-04-09T08:47:29.268Z,12.56
2019-04-09T08:48:28.416Z,12.74
2019-04-09T08:49:28.453Z,12.73
2019-04-09T08:50:30.303Z,12.76
2019-04-09T08:51:27.565Z,12.67
2019-04-09T08:52:27.563Z,12.55
2019-04-09T08:53:27.845Z,12.58
2019-04-09T08:54:29.639Z,12.73
2019-04-09T08:55:31.214Z,12.79
2019-04-09T08:56:27.541Z,12.94
2019-04-09T08:57:27.533Z,12.88
2019-04-09T08:58:28.807Z,12.98
2019-04-09T08:59:30.775Z,13.12
2019-04-09T09:00:59.732Z,13.19
2019-04-09T09:01:48.829Z,13.07
2019-04-09T09:02:32.531Z,12.88
2019-04-09T09:03:29.522Z,12.88
2019-04-09T09:04:29.997Z,12.91
2019-04-09T09:05:30.846Z,12.99
2019-04-09T09:06:27.479Z,13.10
2019-04-09T09:07:29.216Z,13.13
2019-04-09T09:08:27.462Z,13.06
2019-04-09T09:09:30.492Z,13.17
2019-04-09T09:10:27.506Z,13.27
2019-04-09T09:11:30.992Z,13.36
2019-04-09T09:12:29.556Z,13.51
2019-04-09T09:13:27.731Z,13.51
2019-04-09T09:14:27.432Z,13.62
2019-04-09T09:15:27.423Z,13.73
2019-04-09T09:16:30.587Z,13.86
2019-04-09T09:17:27.502Z,13.84
2019-04-09T09:18:27.402Z,13.65
2019-04-09T09:19:31.786Z,13.65
2019-04-09T09:20:28.208Z,13.46
2019-04-09T09:21:34.123Z,13.61
2019-04-09T09:22:30.158Z,13.61
2019-04-09T09:23:27.945Z,13.81
2019-04-09T09:24:27.373Z,13.80
2019-04-09T09:25:30.869Z,13.83
2019-04-09T09:26:27.543Z,13.76
2019-04-09T09:27:27.367Z,13.72
2019-04-09T09:28:27.352Z,13.83
2019-04-09T09:29:27.346Z,14.05
2019-04-09T09:30:32.733Z,14.21
2019-04-09T09:31:30.915Z,14.26
2019-04-09T09:32:27.333Z,14.34
2019-04-09T09:33:32.887Z,14.30
2019-04-09T09:34:27.447Z,14.44
2019-04-09T09:35:28.811Z,14.45
2019-04-09T09:36:27.311Z,14.54
2019-04-09T09:37:28.052Z,14.49
2019-04-09T09:38:28.032Z,14.60
2019-04-09T09:39:32.101Z,14.66
2019-04-09T09:40:29.661Z,14.95
2019-04-09T09:41:28.242Z,15.30
2019-04-09T09:42:27.693Z,15.48
2019-04-09T09:43:27.810Z,15.52
2019-04-09T09:44:27.280Z,15.53
2019-04-09T09:45:29.698Z,15.62
2019-04-09T09:46:30.004Z,15.78
2019-04-09T09:47:27.264Z,16.30
2019-04-09T09:48:27.256Z,16.51
2019-04-09T09:49:30.899Z,16.91
2019-04-09T09:50:27.250Z,17.33
2019-04-09T09:51:30.048Z,17.33
2019-04-09T09:52:28.001Z,17.65
2019-04-09T09:53:29.766Z,17.60
2019-04-09T09:54:27.243Z,17.63
2019-04-09T09:55:27.242Z,17.68
2019-04-09T09:56:33.660Z,17.83
2019-04-09T09:57:27.995Z,18.19
2019-04-09T09:58:27.237Z,18.07
2019-04-09T09:59:31.941Z,17.98
2019-04-09T10:00:28.431Z,18.28
2019-04-09T10:01:33.123Z,18.23
2019-04-09T10:02:30.721Z,18.16
2019-04-09T10:03:27.224Z,18.16
2019-04-09T10:04:28.248Z,18.21
2019-04-09T10:05:30.783Z,18.35
2019-04-09T10:06:27.871Z,18.62
2019-04-09T10:07:37.923Z,18.75
2019-04-09T10:08:29.890Z,18.90
2019-04-09T10:09:29.238Z,18.89
2019-04-09T10:10:30.168Z,18.84
2019-04-09T10:11:30.393Z,18.97
2019-04-09T10:12:33.273Z,19.21
2019-04-09T10:13:27.519Z,19.46
2019-04-09T10:14:29.404Z,19.70
2019-04-09T10:15:27.496Z,19.43
2019-04-09T10:16:27.657Z,19.53
2019-04-09T10:17:31.605Z,19.43
2019-04-09T10:18:28.581Z,19.47
2019-04-09T10:19:30.046Z,19.71
2019-04-09T10:20:31.174Z,19.76
2019-04-09T10:21:27.217Z,20.22
2019-04-09T10:22:28.122Z,20.81
2019-04-09T10:23:31.025Z,21.15
2019-04-09T10:24:31.364Z,21.26
2019-04-09T10:25:31.179Z,20.64
2019-04-09T10:26:27.341Z,20.07
2019-04-09T10:27:27.344Z,20.19
2019-04-09T10:28:29.587Z,20.05
2019-04-09T10:29:31.074Z,20.07
2019-04-09T10:30:27.937Z,20.19
2019-04-09T10:31:36.800Z,20.71
2019-04-09T10:32:27.990Z,21.06
2019-04-09T10:33:27.236Z,20.69
2019-04-09T10:34:30.128Z,20.37
2019-04-09T10:35:30.894Z,20.40
2019-04-09T10:36:27.251Z,20.69
2019-04-09T10:37:27.252Z,21.12
2019-04-09T10:38:27.527Z,21.38
2019-04-09T10:39:34.009Z,21.68
2019-04-09T10:40:27.870Z,22.21
2019-04-09T10:41:36.105Z,22.30
2019-04-09T10:42:27.259Z,22.23
2019-04-09T10:43:28.347Z,22.06
2019-04-09T10:44:27.270Z,21.51
2019-04-09T10:45:28.539Z,21.33
2019-04-09T10:46:30.902Z,21.30
2019-04-09T10:47:27.275Z,21.16
2019-04-09T10:48:27.284Z,20.61
2019-04-09T10:49:28.531Z,20.46
2019-04-09T10:50:30.605Z,20.61
2019-04-09T10:51:27.863Z,20.90
2019-04-09T10:52:28.577Z,20.66
2019-04-09T10:53:31.613Z,21.03
2019-04-09T10:54:27.819Z,21.38
2019-04-09T10:55:27.302Z,21.28
2019-04-09T10:56:31.260Z,21.33
2019-04-09T10:57:27.312Z,20.98
2019-04-09T10:58:27.421Z,21.26
2019-04-09T10:59:29.749Z,21.03
2019-04-09T11:00:28.262Z,21.08
2019-04-09T11:01:35.490Z,21.13
2019-04-09T11:02:31.549Z,21.53
2019-04-09T11:03:28.394Z,22.11
2019-04-09T11:04:27.597Z,22.08
2019-04-09T11:05:28.398Z,22.41
2019-04-09T11:06:29.292Z,21.90
2019-04-09T11:07:31.628Z,21.63
2019-04-09T11:08:27.350Z,21.94
2019-04-09T11:09:28.463Z,22.19
2019-04-09T11:10:31.035Z,21.74
2019-04-09T11:11:27.362Z,21.55
2019-04-09T11:12:28.558Z,21.79
2019-04-09T11:13:30.995Z,21.99
2019-04-09T11:14:28.455Z,22.14
2019-04-09T11:15:28.305Z,22.27
2019-04-09T11:16:30.432Z,22.36
2019-04-09T11:17:29.741Z,22.78
2019-04-09T11:18:27.629Z,23.15
2019-04-09T11:19:29.437Z,23.47
2019-04-09T11:20:29.470Z,23.39
2019-04-09T11:21:27.405Z,22.78
2019-04-09T11:22:28.146Z,22.67
2019-04-09T11:23:27.415Z,22.61
2019-04-09T11:24:30.051Z,22.02
2019-04-09T11:25:27.511Z,21.21
2019-04-09T11:26:29.231Z,20.91
2019-04-09T11:27:28.561Z,21.18
2019-04-09T11:28:27.907Z,21.16
2019-04-09T11:29:27.601Z,20.69
2019-04-09T11:30:27.447Z,20.82
2019-04-09T11:31:28.407Z,20.76
2019-04-09T11:32:27.450Z,20.79
2019-04-09T11:33:27.455Z,20.40
2019-04-09T11:34:27.850Z,20.35
2019-04-09T11:35:28.212Z,20.08
2019-04-09T11:36:27.463Z,19.89
2019-04-09T11:37:28.282Z,20.12
2019-04-09T11:38:27.786Z,20.26
2019-04-09T11:39:28.128Z,20.30
2019-04-09T11:40:27.477Z,20.37
2019-04-09T11:41:28.587Z,20.51
2019-04-09T11:42:27.605Z,20.16
2019-04-09T11:43:27.837Z,19.92
2019-04-09T11:44:27.493Z,20.04
2019-04-09T11:45:27.482Z,20.02
2019-04-09T11:46:28.405Z,19.87
2019-04-09T11:47:27.513Z,19.85
2019-04-09T11:48:27.843Z,19.98
2019-04-09T11:49:27.499Z,19.83
2019-04-09T11:50:27.807Z,19.75
2019-04-09T11:51:27.916Z,19.80
2019-04-09T11:52:28.033Z,19.80
2019-04-09T11:53:28.142Z,19.75
2019-04-09T11:54:27.495Z,19.68
2019-04-09T11:55:27.497Z,19.67
2019-04-09T11:56:28.351Z,19.62
2019-04-09T11:57:27.490Z,19.50
2019-04-09T11:58:27.715Z,19.65
2019-04-09T11:59:30.824Z,19.09
2019-04-09T12:00:27.922Z,19.15
2019-04-09T12:01:28.220Z,19.01
2019-04-09T12:02:28.392Z,19.07
2019-04-09T12:03:27.498Z,18.97
2019-04-09T12:04:27.664Z,18.83
2019-04-09T12:05:27.492Z,18.86
2019-04-09T12:06:27.496Z,18.97
2019-04-09T12:07:28.231Z,18.84
2019-04-09T12:08:27.601Z,18.87
2019-04-09T12:09:27.816Z,18.79
2019-04-09T12:10:28.025Z,18.93
2019-04-09T12:11:27.489Z,18.76
2019-04-09T12:12:27.526Z,18.87
2019-04-09T12:13:28.555Z,18.79
2019-04-09T12:14:27.703Z,18.90
2019-04-09T12:15:27.486Z,19.01
2019-04-09T12:16:27.481Z,18.97
2019-04-09T12:17:28.195Z,18.90
2019-04-09T12:18:28.068Z,18.86
2019-04-09T12:19:28.370Z,18.79
2019-04-09T12:20:28.427Z,18.78
2019-04-09T12:21:27.483Z,18.74
2019-04-09T12:22:27.958Z,18.96
2019-04-09T12:23:27.475Z,19.17
2019-04-09T12:24:27.479Z,19.27
2019-04-09T12:25:28.142Z,19.24
2019-04-09T12:26:28.550Z,19.10
2019-04-09T12:27:28.519Z,19.10
2019-04-09T12:28:27.466Z,19.13
2019-04-09T12:29:27.786Z,18.99
2019-04-09T12:30:28.286Z,19.10
2019-04-09T12:31:28.141Z,19.30
2019-04-09T12:32:28.765Z,19.24
2019-04-09T12:33:27.467Z,19.35
2019-04-09T12:34:28.429Z,19.46
2019-04-09T12:35:27.460Z,19.49
2019-04-09T12:36:27.453Z,19.45
2019-04-09T12:37:27.454Z,19.71
2019-04-09T12:38:27.455Z,19.79
2019-04-09T12:39:28.398Z,19.71
2019-04-09T12:40:27.448Z,19.64
2019-04-09T12:41:27.776Z,19.42
2019-04-09T12:42:27.448Z,19.23
2019-04-09T12:43:27.446Z,19.16
2019-04-09T12:44:27.659Z,18.87
2019-04-09T12:45:27.447Z,18.75
2019-04-09T12:46:27.445Z,18.89
2019-04-09T12:47:28.187Z,18.79
2019-04-09T12:48:28.286Z,18.82
2019-04-09T12:49:27.452Z,18.82
2019-04-09T12:50:27.438Z,18.89
2019-04-09T12:51:27.432Z,18.86
2019-04-09T12:52:28.066Z,18.72